Time;durP1;ratioP1;P1;durP2;ratioP2;P2;SDS_P1;SDS_P2;PMS_P1;PMS_P2;Temp;Humidity;BMP_temperature;BMP_pressure;BME280_temperature;BME280_humidity;BME280_pressure;Samples;Min_cycle;Max_cycle;Signal;HPM_P1;HPM_P2
2021/09/02 00:00:59;;;;;;;6.30;5.70;;;16.40;99.90;;;;;;5088491;28;20263;-72
2021/09/02 00:03:26;;;;;;;6.13;5.53;;;16.30;99.90;;;;;;5092562;28;20538;-71
2021/09/02 00:05:53;;;;;;;5.83;5.17;;;16.30;99.90;;;;;;5092563;28;20232;-72
2021/09/02 00:08:19;;;;;;;6.20;5.60;;;16.30;99.90;;;;;;5092041;28;20210;-71
2021/09/02 00:10:46;;;;;;;6.33;5.80;;;16.30;99.90;;;;;;5092267;28;20448;-72
2021/09/02 00:13:12;;;;;;;6.57;5.87;;;16.30;99.90;;;;;;5092349;28;20248;-72
2021/09/02 00:15:39;;;;;;;5.53;5.03;;;16.30;99.90;;;;;;5092306;28;20256;-72
2021/09/02 00:18:07;;;;;;;5.97;5.30;;;16.20;99.90;;;;;;5092290;28;20263;-72
2021/09/02 00:20:34;;;;;;;5.70;5.20;;;16.20;99.90;;;;;;5092141;28;20206;-72
2021/09/02 00:23:01;;;;;;;5.57;5.17;;;16.20;99.90;;;;;;5092157;28;20241;-72
2021/09/02 00:25:28;;;;;;;6.10;5.40;;;16.20;99.90;;;;;;5092093;28;20287;-72
2021/09/02 00:27:54;;;;;;;6.30;5.63;;;16.20;99.90;;;;;;5092021;28;20245;-72
2021/09/02 00:30:22;;;;;;;6.70;5.20;;;16.20;99.90;;;;;;5091907;28;20252;-72
2021/09/02 00:32:48;;;;;;;5.43;4.93;;;16.20;99.90;;;;;;5091684;28;20626;-72
2021/09/02 00:35:16;;;;;;;6.10;5.50;;;16.20;99.90;;;;;;5091600;28;20219;-71
2021/09/02 00:37:43;;;;;;;7.67;5.37;;;16.20;99.90;;;;;;5091845;28;20211;-72
2021/09/02 00:40:10;;;;;;;6.13;5.63;;;16.10;99.90;;;;;;5091837;28;20203;-72
2021/09/02 00:42:37;;;;;;;7.20;5.80;;;16.20;99.90;;;;;;5091588;28;20236;-72
2021/09/02 00:45:04;;;;;;;8.00;5.50;;;16.20;99.90;;;;;;5091574;28;20252;-72
2021/09/02 00:47:31;;;;;;;5.93;5.43;;;16.20;99.90;;;;;;5091378;28;20203;-72
2021/09/02 00:49:58;;;;;;;6.00;5.50;;;16.10;99.90;;;;;;5091469;28;20203;-72
2021/09/02 00:52:29;;;;;;;5.80;5.30;;;16.20;99.90;;;;;;5091381;28;20210;-73
2021/09/02 00:54:58;;;;;;;6.03;5.43;;;16.20;99.90;;;;;;5090571;28;20284;-73
2021/09/02 00:57:26;;;;;;;6.20;5.63;;;16.10;99.90;;;;;;5089894;28;20258;-72
2021/09/02 00:59:55;;;;;;;6.07;5.47;;;16.10;99.90;;;;;;5090104;28;20244;-73
2021/09/02 01:02:23;;;;;;;5.93;5.53;;;16.10;99.90;;;;;;5090132;28;20203;-73
2021/09/02 01:04:52;;;;;;;6.83;5.53;;;16.10;99.90;;;;;;5089961;28;20202;-73
2021/09/02 01:07:19;;;;;;;6.03;5.63;;;16.10;99.90;;;;;;5090033;28;20221;-73
2021/09/02 01:09:47;;;;;;;6.33;5.67;;;16.00;99.90;;;;;;5090103;28;20231;-72
2021/09/02 01:12:31;;;;;;;5.70;5.30;;;16.00;99.90;;;;;;5089274;28;20207;-73
2021/09/02 01:14:59;;;;;;;6.23;5.63;;;16.00;99.90;;;;;;5089443;28;20233;-72
2021/09/02 01:17:26;;;;;;;5.50;5.10;;;15.90;99.90;;;;;;5089726;28;20618;-72
2021/09/02 01:19:54;;;;;;;5.90;5.40;;;15.90;99.90;;;;;;5089896;28;20202;-72
2021/09/02 01:22:21;;;;;;;8.17;6.10;;;15.90;99.90;;;;;;5089213;28;20669;-73
2021/09/02 01:24:49;;;;;;;6.63;5.63;;;15.90;99.90;;;;;;5089297;28;20661;-72
2021/09/02 01:27:15;;;;;;;5.70;5.27;;;15.90;99.90;;;;;;5089926;28;20487;-72
2021/09/02 01:29:42;;;;;;;8.70;5.27;;;15.80;99.90;;;;;;5089735;28;20276;-71
2021/09/02 01:32:08;;;;;;;5.67;5.27;;;15.80;99.90;;;;;;5089215;28;20218;-72
2021/09/02 01:34:35;;;;;;;6.53;5.60;;;15.80;99.90;;;;;;5089764;28;20264;-71
2021/09/02 01:37:02;;;;;;;6.13;5.53;;;15.80;99.90;;;;;;5089680;28;20288;-70
2021/09/02 01:39:28;;;;;;;7.13;5.73;;;15.80;99.90;;;;;;5089450;28;20231;-70
2021/09/02 01:41:56;;;;;;;6.47;5.57;;;15.70;99.90;;;;;;5089760;28;20556;-70
2021/09/02 01:44:25;;;;;;;6.17;5.67;;;15.70;99.90;;;;;;5089369;28;20207;-70
2021/09/02 01:46:51;;;;;;;5.83;5.33;;;15.70;99.90;;;;;;5089366;28;20235;-70
2021/09/02 01:49:18;;;;;;;6.10;5.50;;;15.70;99.90;;;;;;5089276;28;20602;-70
2021/09/02 01:51:45;;;;;;;5.73;5.23;;;15.70;99.90;;;;;;5089280;28;20222;-70
2021/09/02 01:54:12;;;;;;;5.73;5.20;;;15.70;99.90;;;;;;5054587;28;992653;-70
2021/09/02 01:56:39;;;;;;;6.10;5.47;;;15.70;99.90;;;;;;5089788;28;20746;-70
2021/09/02 01:59:07;;;;;;;5.93;5.20;;;15.70;99.90;;;;;;5090060;28;20202;-70
2021/09/02 02:01:34;;;;;;;6.57;5.83;;;15.70;99.90;;;;;;5090215;28;20419;-70
2021/09/02 02:04:01;;;;;;;6.23;5.60;;;15.70;99.90;;;;;;5090095;28;20253;-70
2021/09/02 02:06:27;;;;;;;5.97;5.40;;;15.70;99.90;;;;;;5089824;28;20202;-70
2021/09/02 02:08:54;;;;;;;6.37;5.63;;;15.70;99.90;;;;;;5090010;28;20552;-70
2021/09/02 02:11:20;;;;;;;5.93;5.40;;;15.70;99.90;;;;;;5089752;28;20261;-70
2021/09/02 02:13:47;;;;;;;6.07;5.47;;;15.60;99.90;;;;;;5090233;28;20260;-70
2021/09/02 02:16:15;;;;;;;5.93;5.43;;;15.50;99.90;;;;;;5089540;28;20230;-71
2021/09/02 02:18:42;;;;;;;6.40;5.73;;;15.50;99.90;;;;;;5089387;28;20742;-71
2021/09/02 02:21:08;;;;;;;5.97;5.40;;;15.60;99.90;;;;;;5089694;28;20228;-71
2021/09/02 02:23:35;;;;;;;6.30;5.70;;;15.60;99.90;;;;;;5089533;28;20264;-71
2021/09/02 02:26:01;;;;;;;6.10;5.60;;;15.60;99.90;;;;;;5089057;28;20307;-70
2021/09/02 02:28:28;;;;;;;5.97;5.47;;;15.70;99.90;;;;;;5089160;28;20207;-70
2021/09/02 02:30:55;;;;;;;7.93;5.20;;;15.60;99.90;;;;;;5089223;28;20230;-70
2021/09/02 02:33:22;;;;;;;5.73;5.23;;;15.60;99.90;;;;;;5089422;28;20203;-70
2021/09/02 02:35:49;;;;;;;5.80;5.27;;;15.60;99.90;;;;;;5089471;28;20283;-70
2021/09/02 02:38:16;;;;;;;6.17;5.57;;;15.60;99.90;;;;;;5089056;28;20207;-70
2021/09/02 02:40:42;;;;;;;6.10;5.50;;;15.60;99.90;;;;;;5089647;28;20264;-70
2021/09/02 02:43:09;;;;;;;7.33;5.67;;;15.60;99.90;;;;;;5089535;28;20207;-71
2021/09/02 02:45:36;;;;;;;6.60;6.00;;;15.60;99.90;;;;;;5089280;28;20211;-72
2021/09/02 02:48:02;;;;;;;6.27;5.67;;;15.60;99.90;;;;;;5089541;28;20238;-71
2021/09/02 02:50:30;;;;;;;7.37;5.27;;;15.60;99.90;;;;;;5089287;28;20259;-72
2021/09/02 02:52:57;;;;;;;5.37;4.97;;;15.60;99.90;;;;;;5089389;28;20222;-72
2021/09/02 02:55:24;;;;;;;6.00;5.50;;;15.50;99.90;;;;;;5088837;28;20282;-71
2021/09/02 02:57:50;;;;;;;5.63;5.13;;;15.50;99.90;;;;;;5089285;28;20230;-72
2021/09/02 03:00:18;;;;;;;6.50;5.40;;;15.50;99.90;;;;;;5088756;28;20210;-72
2021/09/02 03:02:44;;;;;;;6.23;5.73;;;15.40;99.90;;;;;;5098198;28;20210;-69
2021/09/02 03:05:11;;;;;;;6.07;5.50;;;15.40;99.90;;;;;;5107379;28;20213;-70
2021/09/02 03:07:39;;;;;;;5.53;5.13;;;15.40;99.90;;;;;;5109732;28;20242;-81
2021/09/02 03:10:08;;;;;;;6.07;5.30;;;15.40;99.90;;;;;;5109175;28;20279;-70
2021/09/02 03:12:35;;;;;;;6.77;5.80;;;15.40;99.90;;;;;;5097724;28;20202;-72
2021/09/02 03:15:02;;;;;;;5.37;4.87;;;15.30;99.90;;;;;;5097738;28;20578;-72
2021/09/02 03:17:28;;;;;;;6.40;5.60;;;15.30;99.90;;;;;;5105943;28;20261;-71
2021/09/02 03:19:55;;;;;;;5.83;5.33;;;15.30;99.90;;;;;;5107210;28;20209;-71
2021/09/02 03:22:22;;;;;;;5.90;5.40;;;15.30;99.90;;;;;;5105409;28;20202;-71
2021/09/02 03:24:50;;;;;;;6.57;5.67;;;15.30;99.90;;;;;;5105372;28;20199;-70
2021/09/02 03:27:16;;;;;;;6.03;5.47;;;15.30;99.90;;;;;;5105154;28;20259;-73
2021/09/02 03:29:43;;;;;;;6.43;5.73;;;15.30;99.90;;;;;;5105517;28;20223;-72
2021/09/02 03:32:10;;;;;;;6.07;5.47;;;15.20;99.90;;;;;;5095473;28;20222;-73
2021/09/02 03:34:37;;;;;;;6.30;5.80;;;15.20;99.90;;;;;;5104013;28;20300;-73
2021/09/02 03:37:04;;;;;;;6.90;6.23;;;15.20;99.90;;;;;;5105463;28;20763;-73
2021/09/02 03:39:30;;;;;;;8.37;6.20;;;15.20;99.90;;;;;;5107225;28;20213;-73
2021/09/02 03:41:59;;;;;;;6.20;5.70;;;15.20;99.90;;;;;;5106995;28;20202;-73
2021/09/02 03:44:25;;;;;;;6.27;5.70;;;15.20;99.90;;;;;;5106714;28;20214;-72
2021/09/02 03:46:52;;;;;;;12.00;5.90;;;15.20;99.90;;;;;;5086017;28;20206;-72
2021/09/02 03:49:18;;;;;;;5.90;5.40;;;15.20;99.90;;;;;;5086092;28;20234;-72
2021/09/02 03:51:48;;;;;;;6.57;5.97;;;15.30;99.90;;;;;;5085995;28;20213;-72
2021/09/02 03:54:15;;;;;;;7.10;6.40;;;15.30;99.90;;;;;;5085648;28;20315;-72
2021/09/02 03:56:41;;;;;;;6.60;6.00;;;15.20;99.90;;;;;;5085885;28;20231;-72
2021/09/02 03:59:09;;;;;;;6.20;5.67;;;15.20;99.90;;;;;;5103103;28;20748;-72
2021/09/02 04:01:36;;;;;;;6.77;5.93;;;15.20;99.90;;;;;;5107549;28;20205;-71
2021/09/02 04:04:03;;;;;;;7.30;6.23;;;15.20;99.90;;;;;;5105886;28;20263;-72
2021/09/02 04:06:29;;;;;;;6.77;6.17;;;15.10;99.90;;;;;;5107185;28;20210;-72
2021/09/02 04:08:56;;;;;;;6.10;5.50;;;15.10;99.90;;;;;;5107596;28;20251;-72
2021/09/02 04:11:23;;;;;;;5.97;5.33;;;15.10;99.90;;;;;;5107176;28;20259;-72
2021/09/02 04:13:50;;;;;;;6.43;5.93;;;15.10;99.90;;;;;;5107221;28;20722;-71
2021/09/02 04:16:18;;;;;;;6.10;5.60;;;15.10;99.90;;;;;;5107190;28;20251;-71
2021/09/02 04:18:44;;;;;;;7.20;6.47;;;15.10;99.90;;;;;;5104896;28;20248;-71
2021/09/02 04:21:12;;;;;;;6.60;6.00;;;15.10;99.90;;;;;;5098033;28;20194;-71
2021/09/02 04:23:39;;;;;;;6.30;5.80;;;15.20;99.90;;;;;;5100140;28;20198;-71
2021/09/02 04:26:05;;;;;;;6.03;5.53;;;15.20;99.90;;;;;;5106920;28;20251;-71
2021/09/02 04:28:32;;;;;;;5.50;5.10;;;15.20;99.90;;;;;;5107263;28;20205;-72
2021/09/02 04:30:59;;;;;;;8.03;6.43;;;15.20;99.90;;;;;;5107116;28;20271;-72
2021/09/02 04:33:27;;;;;;;8.13;5.90;;;15.20;99.90;;;;;;5107199;28;20542;-72
2021/09/02 04:35:53;;;;;;;6.60;6.10;;;15.20;99.90;;;;;;5107005;28;20198;-72
2021/09/02 04:38:21;;;;;;;6.40;5.90;;;15.20;99.90;;;;;;5106925;28;20302;-72
2021/09/02 04:40:48;;;;;;;8.47;6.13;;;15.10;99.90;;;;;;5107136;28;20660;-72
2021/09/02 04:43:15;;;;;;;6.50;5.80;;;15.10;99.90;;;;;;5106905;28;20260;-72
2021/09/02 04:45:42;;;;;;;8.00;6.60;;;15.10;99.90;;;;;;5106833;28;20202;-71
2021/09/02 04:48:15;;;;;;;7.10;5.83;;;15.10;99.90;;;;;;5108677;28;20251;-72
2021/09/02 04:50:45;;;;;;;7.63;5.20;;;15.10;99.90;;;;;;5110893;28;20549;-72
2021/09/02 04:53:12;;;;;;;8.07;6.33;;;15.10;99.90;;;;;;5110589;28;20305;-72
2021/09/02 04:55:40;;;;;;;6.93;5.70;;;15.00;99.90;;;;;;5099304;28;20243;-72
2021/09/02 04:58:09;;;;;;;7.60;6.83;;;15.00;99.90;;;;;;5109246;27;20703;-72
2021/09/02 05:00:37;;;;;;;6.33;5.60;;;15.00;99.90;;;;;;5108669;28;20228;-72
2021/09/02 05:03:04;;;;;;;8.00;6.30;;;15.00;99.90;;;;;;5099157;27;20210;-71
2021/09/02 05:05:31;;;;;;;6.30;5.70;;;15.00;99.90;;;;;;5110490;27;20194;-72
2021/09/02 05:07:59;;;;;;;6.83;6.00;;;15.00;99.90;;;;;;5110258;28;20202;-72
2021/09/02 05:10:27;;;;;;;6.97;6.27;;;15.00;99.90;;;;;;5110803;28;20198;-71
2021/09/02 05:12:53;;;;;;;6.97;5.67;;;15.00;99.90;;;;;;5110450;28;20198;-72
2021/09/02 05:15:20;;;;;;;10.13;6.97;;;15.00;99.90;;;;;;5110308;28;20234;-73
2021/09/02 05:17:47;;;;;;;7.73;6.67;;;15.00;99.90;;;;;;5108776;27;20279;-73
2021/09/02 05:20:15;;;;;;;8.30;7.47;;;15.00;99.90;;;;;;5109974;28;20206;-72
2021/09/02 05:22:43;;;;;;;7.70;7.00;;;15.00;99.90;;;;;;5109819;28;20699;-72
2021/09/02 05:25:12;;;;;;;7.80;7.10;;;15.00;99.90;;;;;;5109676;28;20194;-72
2021/09/02 05:27:40;;;;;;;8.50;7.80;;;15.10;99.90;;;;;;5111341;28;20349;-72
2021/09/02 05:30:10;;;;;;;11.23;6.40;;;15.20;99.90;;;;;;5110292;28;20218;-71
2021/09/02 05:32:37;;;;;;;7.43;6.23;;;15.10;99.90;;;;;;5099448;28;20199;-71
2021/09/02 05:35:04;;;;;;;11.20;7.53;;;15.10;99.90;;;;;;5098948;28;20656;-72
2021/09/02 05:37:31;;;;;;;10.80;7.83;;;15.10;99.90;;;;;;5100475;28;20314;-71
2021/09/02 05:39:58;;;;;;;10.83;7.97;;;14.80;99.90;;;;;;5100716;28;20198;-72
2021/09/02 05:42:25;;;;;;;12.27;7.07;;;14.90;99.90;;;;;;5103167;28;20199;-72
2021/09/02 05:44:52;;;;;;;16.73;8.17;;;14.90;99.90;;;;;;5109726;28;20198;-72
2021/09/02 05:47:20;;;;;;;25.23;9.23;;;14.90;99.90;;;;;;5109674;28;20280;-71
2021/09/02 05:49:46;;;;;;;30.93;9.57;;;15.00;99.90;;;;;;5098373;28;20206;-72
2021/09/02 05:52:13;;;;;;;20.50;9.87;;;15.00;99.90;;;;;;5104412;28;20644;-71
2021/09/02 05:54:40;;;;;;;15.17;9.20;;;15.10;99.90;;;;;;5109285;28;20234;-72
2021/09/02 05:57:06;;;;;;;9.70;8.40;;;15.10;99.90;;;;;;5098552;28;20280;-72
2021/09/02 05:59:35;;;;;;;9.00;8.10;;;15.10;99.90;;;;;;5102742;28;20256;-72
2021/09/02 06:02:01;;;;;;;10.17;8.67;;;15.10;99.90;;;;;;5101944;28;20228;-71
2021/09/02 06:04:28;;;;;;;12.07;9.63;;;14.90;99.90;;;;;;5109014;28;20206;-72
2021/09/02 06:06:54;;;;;;;9.63;8.63;;;14.70;99.90;;;;;;5109492;28;20206;-71
2021/09/02 06:09:21;;;;;;;9.60;8.67;;;14.60;99.90;;;;;;5109272;28;20271;-71
2021/09/02 06:11:48;;;;;;;11.37;9.40;;;14.60;99.90;;;;;;5109074;28;20202;-71
2021/09/02 06:14:14;;;;;;;10.03;9.03;;;14.70;99.90;;;;;;5109165;28;20255;-71
2021/09/02 06:16:42;;;;;;;11.17;8.60;;;14.70;99.90;;;;;;5109219;28;20198;-71
2021/09/02 06:19:09;;;;;;;10.07;9.07;;;14.70;99.90;;;;;;5106929;28;20199;-72
2021/09/02 06:21:36;;;;;;;11.73;8.87;;;14.70;99.90;;;;;;5110477;28;20267;-71
2021/09/02 06:24:02;;;;;;;10.70;9.60;;;14.90;99.90;;;;;;5110197;28;20275;-72
2021/09/02 06:26:29;;;;;;;11.03;9.93;;;15.00;99.90;;;;;;5110143;28;20202;-71
2021/09/02 06:28:56;;;;;;;14.10;10.70;;;14.80;99.90;;;;;;5109888;27;20744;-71
2021/09/02 06:31:22;;;;;;;12.93;9.83;;;14.80;99.90;;;;;;5110066;28;20295;-71
2021/09/02 06:33:50;;;;;;;12.20;10.37;;;14.70;99.90;;;;;;5109589;28;20210;-72
2021/09/02 06:36:19;;;;;;;12.77;10.53;;;14.80;99.90;;;;;;5109322;28;20210;-71
2021/09/02 06:38:45;;;;;;;11.77;10.13;;;14.90;99.90;;;;;;5109404;28;20260;-71
2021/09/02 06:41:12;;;;;;;13.50;11.30;;;15.00;99.90;;;;;;5109801;28;20236;-72
2021/09/02 06:43:38;;;;;;;14.37;10.37;;;15.10;99.90;;;;;;5109244;28;20210;-72
2021/09/02 06:46:05;;;;;;;13.17;10.63;;;15.10;99.90;;;;;;5109452;28;20214;-72
2021/09/02 06:48:32;;;;;;;16.17;13.97;;;15.00;99.90;;;;;;5109387;28;20260;-73
2021/09/02 06:51:00;;;;;;;14.73;11.70;;;14.90;99.90;;;;;;5109831;28;20632;-73
2021/09/02 06:53:26;;;;;;;13.30;11.87;;;14.80;99.90;;;;;;5108804;28;20226;-72
2021/09/02 06:55:53;;;;;;;16.53;12.10;;;14.90;99.90;;;;;;5109096;27;20265;-73
2021/09/02 06:58:20;;;;;;;15.83;11.83;;;15.10;99.90;;;;;;5108774;28;20256;-73
2021/09/02 07:00:46;;;;;;;16.37;11.30;;;15.10;99.90;;;;;;5109129;28;20255;-70
2021/09/02 07:03:13;;;;;;;13.77;12.33;;;15.10;99.90;;;;;;5109565;28;20237;-70
2021/09/02 07:05:41;;;;;;;16.57;12.53;;;15.20;99.90;;;;;;5108882;28;20664;-70
2021/09/02 07:08:09;;;;;;;14.67;11.90;;;15.00;99.90;;;;;;5109128;28;20423;-72
2021/09/02 07:10:36;;;;;;;16.10;12.30;;;15.10;99.90;;;;;;5108213;28;20206;-73
2021/09/02 07:13:02;;;;;;;15.47;12.50;;;15.10;99.90;;;;;;5108571;28;20202;-71
2021/09/02 07:15:29;;;;;;;15.40;13.17;;;15.00;99.90;;;;;;5108010;28;20213;-71
2021/09/02 07:17:56;;;;;;;15.03;12.43;;;14.90;99.90;;;;;;5104135;28;20271;-71
2021/09/02 07:20:22;;;;;;;18.67;12.17;;;14.80;99.90;;;;;;5101819;28;20203;-71
2021/09/02 07:22:49;;;;;;;13.80;12.30;;;14.80;99.90;;;;;;5098681;28;20684;-70
2021/09/02 07:25:17;;;;;;;14.40;11.30;;;14.90;99.90;;;;;;5098712;28;20247;-71
2021/09/02 07:27:44;;;;;;;12.70;10.67;;;14.80;99.90;;;;;;5101585;28;20240;-71
2021/09/02 07:30:11;;;;;;;12.93;11.13;;;14.80;99.90;;;;;;5101513;28;20218;-71
2021/09/02 07:32:38;;;;;;;13.67;11.30;;;14.80;99.90;;;;;;5101624;28;20198;-70
2021/09/02 07:35:06;;;;;;;15.53;10.10;;;14.90;99.90;;;;;;5098682;28;20255;-70
2021/09/02 07:37:33;;;;;;;11.07;9.93;;;15.00;99.90;;;;;;5096508;28;20242;-70
2021/09/02 07:39:59;;;;;;;11.03;10.03;;;15.00;99.90;;;;;;5108298;28;20267;-70
2021/09/02 07:42:27;;;;;;;10.40;9.40;;;15.10;99.90;;;;;;5108539;28;20545;-70
2021/09/02 07:44:55;;;;;;;9.07;8.23;;;15.10;99.90;;;;;;5108455;28;20713;-70
2021/09/02 07:47:22;;;;;;;8.87;7.93;;;14.90;99.90;;;;;;5108692;28;20283;-70
2021/09/02 07:49:48;;;;;;;8.53;7.93;;;14.80;99.90;;;;;;5108580;28;20210;-71
2021/09/02 07:52:15;;;;;;;9.37;8.13;;;14.70;99.90;;;;;;5108711;28;20229;-71
2021/09/02 07:54:42;;;;;;;9.13;8.10;;;14.60;99.90;;;;;;5108006;28;20707;-71
2021/09/02 07:57:08;;;;;;;8.70;7.80;;;14.50;99.90;;;;;;5108524;28;20202;-72
2021/09/02 07:59:36;;;;;;;8.20;7.43;;;14.50;99.90;;;;;;5107591;28;20251;-72
2021/09/02 08:02:03;;;;;;;7.97;7.17;;;14.50;99.90;;;;;;5107616;28;20217;-71
2021/09/02 08:04:30;;;;;;;7.17;6.57;;;14.70;99.90;;;;;;5107478;28;20236;-71
2021/09/02 08:06:56;;;;;;;8.23;7.43;;;14.90;99.90;;;;;;5107940;28;20584;-72
2021/09/02 08:09:23;;;;;;;9.93;7.43;;;15.00;99.90;;;;;;5107728;28;20202;-71
2021/09/02 08:11:50;;;;;;;8.17;7.37;;;14.80;99.90;;;;;;5107993;28;20551;-72
2021/09/02 08:14:16;;;;;;;7.80;7.10;;;14.90;99.90;;;;;;5107209;28;20206;-72
2021/09/02 08:16:44;;;;;;;7.23;6.67;;;15.00;99.90;;;;;;5107603;28;20206;-71
2021/09/02 08:19:11;;;;;;;7.40;6.80;;;15.20;99.90;;;;;;5107464;28;20234;-71
2021/09/02 08:21:38;;;;;;;7.40;6.70;;;15.30;99.90;;;;;;5107222;28;20692;-71
2021/09/02 08:24:06;;;;;;;8.10;7.40;;;15.30;99.90;;;;;;5111040;28;20211;-71
2021/09/02 08:26:33;;;;;;;7.27;6.77;;;15.30;99.90;;;;;;5111342;28;20202;-71
2021/09/02 08:29:01;;;;;;;9.20;6.40;;;15.40;99.90;;;;;;5111210;28;20210;-71
2021/09/02 08:31:28;;;;;;;7.40;6.43;;;15.50;99.90;;;;;;5110936;28;20987;-72
2021/09/02 08:33:56;;;;;;;8.70;7.80;;;15.70;99.90;;;;;;5111589;28;20198;-72
2021/09/02 08:36:23;;;;;;;8.23;7.53;;;15.80;99.90;;;;;;5111115;28;20247;-72
2021/09/02 08:38:49;;;;;;;7.93;7.33;;;15.60;99.90;;;;;;5111274;28;20226;-72
2021/09/02 08:41:16;;;;;;;8.07;7.27;;;15.40;99.90;;;;;;5111283;28;20668;-71
2021/09/02 08:43:45;;;;;;;8.73;7.90;;;15.40;99.90;;;;;;5111545;28;20235;-72
2021/09/02 08:46:12;;;;;;;9.23;8.33;;;15.20;99.90;;;;;;5111176;28;20202;-71
2021/09/02 08:48:44;;;;;;;9.10;8.30;;;15.20;99.90;;;;;;5111091;28;20672;-72
2021/09/02 08:51:12;;;;;;;8.77;8.10;;;15.10;99.90;;;;;;5110923;28;20243;-72
2021/09/02 08:53:38;;;;;;;8.37;7.67;;;15.10;99.90;;;;;;5111054;28;20243;-71
2021/09/02 08:56:05;;;;;;;10.33;9.23;;;15.10;99.90;;;;;;5110930;28;20230;-71
2021/09/02 08:58:32;;;;;;;9.53;8.57;;;15.10;99.90;;;;;;5110995;28;20281;-71
2021/09/02 09:00:59;;;;;;;10.33;9.23;;;15.20;99.90;;;;;;5111004;28;20655;-72
2021/09/02 09:03:27;;;;;;;9.60;8.80;;;15.10;99.90;;;;;;5110661;28;20209;-71
2021/09/02 09:05:54;;;;;;;9.73;8.93;;;15.00;99.90;;;;;;5111192;27;20241;-72
2021/09/02 09:08:33;;;;;;;9.33;8.53;;;15.10;99.90;;;;;;5110925;28;20222;-72
2021/09/02 09:11:15;;;;;;;10.93;10.03;;;15.10;99.90;;;;;;5110999;28;20194;-72
2021/09/02 09:13:42;;;;;;;10.57;9.57;;;15.20;99.90;;;;;;5110683;28;20257;-72
2021/09/02 09:16:09;;;;;;;9.83;8.90;;;15.40;99.90;;;;;;5110252;28;20248;-72
2021/09/02 09:18:42;;;;;;;10.37;9.33;;;15.50;99.90;;;;;;5110088;28;20271;-72
2021/09/02 09:21:11;;;;;;;10.60;9.63;;;15.60;99.90;;;;;;5110389;28;20239;-72
2021/09/02 09:23:58;;;;;;;10.10;9.17;;;15.80;99.90;;;;;;5110228;28;20229;-72
2021/09/02 09:26:25;;;;;;;10.67;9.67;;;15.90;99.90;;;;;;5108913;28;20577;-72
2021/09/02 09:28:55;;;;;;;10.53;9.53;;;16.00;99.90;;;;;;5098772;28;20194;-72
2021/09/02 09:31:27;;;;;;;10.83;9.80;;;16.00;99.90;;;;;;5098658;28;20202;-72
2021/09/02 09:33:55;;;;;;;10.97;9.80;;;15.90;99.90;;;;;;5107571;28;20195;-72
2021/09/02 09:36:23;;;;;;;10.80;9.77;;;16.00;99.90;;;;;;5109393;28;20197;-71
2021/09/02 09:39:06;;;;;;;9.73;8.83;;;16.10;99.90;;;;;;5109385;28;20291;-72
2021/09/02 09:41:35;;;;;;;11.40;10.40;;;16.20;99.90;;;;;;5101342;28;20634;-72
2021/09/02 09:44:18;;;;;;;10.47;9.67;;;16.20;99.90;;;;;;5109865;28;20198;-72
2021/09/02 09:47:10;;;;;;;12.00;9.03;;;16.40;99.90;;;;;;5109635;28;20190;-72
2021/09/02 09:49:48;;;;;;;10.63;9.53;;;16.50;99.90;;;;;;5107531;28;20198;-72
2021/09/02 09:52:24;;;;;;;10.63;9.63;;;16.70;99.90;;;;;;5099356;28;20290;-72
2021/09/02 09:54:52;;;;;;;10.27;9.37;;;16.70;99.90;;;;;;5106197;28;20221;-72
2021/09/02 09:57:19;;;;;;;10.73;9.30;;;16.70;99.90;;;;;;5109332;28;20251;-72
2021/09/02 09:59:46;;;;;;;11.57;10.43;;;16.80;99.90;;;;;;5108983;28;20221;-71
2021/09/02 10:02:13;;;;;;;10.93;9.93;;;16.80;99.90;;;;;;5099488;28;20198;-71
2021/09/02 10:04:42;;;;;;;11.73;10.63;;;16.70;99.90;;;;;;5096857;28;20232;-71
2021/09/02 10:07:12;;;;;;;13.37;10.80;;;16.70;99.90;;;;;;5109253;27;20229;-72
2021/09/02 10:09:39;;;;;;;12.47;11.27;;;16.70;99.90;;;;;;5109221;28;20573;-71
2021/09/02 10:12:07;;;;;;;11.87;10.00;;;16.80;99.90;;;;;;5109476;28;20673;-71
2021/09/02 10:14:34;;;;;;;13.10;10.53;;;16.80;99.90;;;;;;5109655;28;20251;-71
2021/09/02 10:17:01;;;;;;;11.97;10.77;;;16.90;99.90;;;;;;5104266;28;20278;-72
2021/09/02 10:19:28;;;;;;;11.90;10.23;;;17.10;99.90;;;;;;5094411;28;20226;-72
2021/09/02 10:21:58;;;;;;;11.97;10.77;;;17.30;99.90;;;;;;5106542;28;20210;-72
2021/09/02 10:24:36;;;;;;;11.17;9.90;;;17.40;99.90;;;;;;5109065;28;20267;-72
2021/09/02 10:27:33;;;;;;;13.47;11.03;;;17.50;99.90;;;;;;5108761;28;20208;-72
2021/09/02 10:30:00;;;;;;;12.27;9.20;;;17.40;99.90;;;;;;5095711;28;20291;-72
2021/09/02 10:32:30;;;;;;;11.33;10.23;;;17.60;99.90;;;;;;5108653;28;20202;-72
2021/09/02 10:35:34;;;;;;;12.93;9.70;;;17.70;99.90;;;;;;5088929;28;20203;-73
2021/09/02 10:38:01;;;;;;;10.73;9.00;;;17.80;99.90;;;;;;5101429;28;20202;-72
2021/09/02 10:40:46;;;;;;;9.80;8.80;;;18.00;99.90;;;;;;5108519;28;20295;-72
2021/09/02 10:43:13;;;;;;;9.37;8.63;;;17.90;99.90;;;;;;5102130;28;20205;-72
2021/09/02 10:45:42;;;;;;;8.70;7.80;;;18.10;99.90;;;;;;5099145;28;20195;-72
2021/09/02 10:48:15;;;;;;;9.43;8.53;;;18.00;99.90;;;;;;5108090;28;20568;-72
2021/09/02 10:50:44;;;;;;;8.90;8.13;;;18.10;99.90;;;;;;5106972;28;20195;-72
2021/09/02 10:53:12;;;;;;;9.43;8.53;;;18.10;99.90;;;;;;5108281;28;20207;-72
2021/09/02 10:55:41;;;;;;;9.43;8.53;;;18.00;99.90;;;;;;5108029;28;20241;-72
2021/09/02 10:58:09;;;;;;;10.63;8.37;;;18.00;99.90;;;;;;5105747;28;20811;-72
2021/09/02 11:00:38;;;;;;;10.40;8.57;;;18.10;99.90;;;;;;5089230;28;20605;-72
2021/09/02 11:03:16;;;;;;;9.87;8.97;;;18.20;99.90;;;;;;5108045;28;20676;-72
2021/09/02 11:05:46;;;;;;;9.30;8.40;;;18.20;99.90;;;;;;5108187;28;20237;-72
2021/09/02 11:08:13;;;;;;;9.20;7.97;;;18.40;99.90;;;;;;5099849;28;20281;-72
2021/09/02 11:10:39;;;;;;;10.07;8.73;;;18.60;99.90;;;;;;5096981;28;20668;-72
2021/09/02 11:13:08;;;;;;;9.87;8.80;;;18.90;99.90;;;;;;5091525;28;20267;-72
2021/09/02 11:15:36;;;;;;;10.17;9.07;;;19.10;99.90;;;;;;5105390;28;20286;-72
2021/09/02 11:18:05;;;;;;;10.03;8.90;;;19.00;99.90;;;;;;5107813;28;20202;-72
2021/09/02 11:20:35;;;;;;;9.20;8.40;;;19.00;99.90;;;;;;5095865;28;20299;-72
2021/09/02 11:23:10;;;;;;;8.57;7.77;;;19.10;99.90;;;;;;5090438;28;20194;-72
2021/09/02 11:25:42;;;;;;;10.07;8.97;;;19.30;99.90;;;;;;5105862;28;20197;-72
2021/09/02 11:28:08;;;;;;;9.27;8.57;;;19.30;99.90;;;;;;5108017;28;20198;-72
2021/09/02 11:30:36;;;;;;;11.03;9.30;;;19.30;99.90;;;;;;5097973;28;20218;-72
2021/09/02 11:33:06;;;;;;;9.40;8.53;;;19.40;99.90;;;;;;5095282;28;20210;-72
2021/09/02 11:35:34;;;;;;;8.57;7.77;;;19.50;99.90;;;;;;5107640;28;20218;-72
2021/09/02 11:38:00;;;;;;;10.30;7.87;;;19.70;99.90;;;;;;5107908;28;20226;-72
2021/09/02 11:40:28;;;;;;;10.60;8.30;;;19.90;99.90;;;;;;5107674;28;20649;-72
2021/09/02 11:42:56;;;;;;;8.17;7.37;;;20.00;99.90;;;;;;5096650;28;20813;-72
2021/09/02 11:45:25;;;;;;;8.87;7.33;;;20.10;99.90;;;;;;5107341;28;20283;-72
2021/09/02 11:47:53;;;;;;;11.13;8.33;;;20.30;99.90;;;;;;5107425;28;20202;-72
2021/09/02 11:50:21;;;;;;;8.87;8.00;;;20.40;99.90;;;;;;5098818;28;20215;-72
2021/09/02 11:52:51;;;;;;;8.67;7.77;;;20.50;99.90;;;;;;5107044;28;20275;-72
2021/09/02 11:55:29;;;;;;;8.27;7.10;;;20.60;99.90;;;;;;5106763;28;20313;-71
2021/09/02 11:57:57;;;;;;;8.47;7.47;;;20.80;99.90;;;;;;5108202;28;20198;-70
2021/09/02 12:00:24;;;;;;;9.30;7.47;;;21.10;99.90;;;;;;5110781;28;20712;-71
2021/09/02 12:02:53;;;;;;;8.60;7.30;;;21.40;99.90;;;;;;5111572;28;20198;-72
2021/09/02 12:05:21;;;;;;;8.37;7.47;;;21.00;99.90;;;;;;5100115;28;20206;-71
2021/09/02 12:07:50;;;;;;;10.07;7.73;;;20.80;99.90;;;;;;5104666;27;20343;-71
2021/09/02 12:10:18;;;;;;;8.27;7.13;;;20.90;99.90;;;;;;5111282;28;20214;-71
2021/09/02 12:12:45;;;;;;;9.30;7.50;;;21.00;99.90;;;;;;5118965;27;20197;-71
2021/09/02 12:15:24;;;;;;;8.63;6.60;;;21.20;99.90;;;;;;5121239;27;20220;-71
2021/09/02 12:18:06;;;;;;;7.40;6.67;;;21.40;99.90;;;;;;5111783;28;20624;-71
2021/09/02 12:20:33;;;;;;;8.87;7.00;;;21.60;99.90;;;;;;5111327;28;20695;-71
2021/09/02 12:23:16;;;;;;;7.73;6.93;;;21.80;99.90;;;;;;5111639;27;20293;-72
2021/09/02 12:25:56;;;;;;;11.77;7.60;;;21.90;99.90;;;;;;5112927;27;20573;-72
2021/09/02 12:28:31;;;;;;;8.18;6.60;;;21.70;99.90;;;;;;5111387;28;20194;-73
2021/09/02 12:30:57;;;;;;;9.30;7.70;;;21.60;99.90;;;;;;5111320;28;21028;-74
2021/09/02 12:33:25;;;;;;;8.55;6.97;;;21.80;99.90;;;;;;5099727;28;20206;-73
2021/09/02 12:35:52;;;;;;;8.90;7.50;;;21.80;99.90;;;;;;5110133;28;20202;-73
2021/09/02 12:38:34;;;;;;;7.57;6.83;;;21.80;99.90;;;;;;5111161;28;20206;-74
2021/09/02 12:41:11;;;;;;;8.50;6.70;;;21.90;99.90;;;;;;5111679;28;20267;-70
2021/09/02 12:43:38;;;;;;;7.70;6.47;;;22.10;99.90;;;;;;5110835;28;20644;-71
2021/09/02 12:46:04;;;;;;;7.45;6.18;;;22.20;99.90;;;;;;5100115;28;20198;-71
2021/09/02 12:48:32;;;;;;;9.85;6.65;;;22.30;99.90;;;;;;5104367;28;20264;-72